Dolphin X — WDF7739 — position and weather

sailwx.info

Track history (hours):
 
Tides and Currents Weather Stations Pressure Air Temp Water Temp Dewpoint Dewpoint Depression Visibility Wind Speed Wind Dir Waves Ship Positions

Dolphin X

Owner: Cape Cod Fishing Fleet Inc, Eastham, MA. More information available from US FCC via Universal Licensing System and Coast Guard Vessel Documentation Center.

Last reported at 2017-Oct-22 19:40 UTC. Time now 2017-Oct-23 02:40 UTC.
Position N 42°01' W 070°11'.

Length 30 m.

MMSI: 367487640.

Date/timePositionNaut miles runAvg speedWind from/ knotsBaromVisibWave heightAir tempDewpointWater temp
2017-Oct-22 19:40N 42°01' W 070°11'321.4
2017-Oct-22 19:31N 42°03' W 070°15'1223.6
2017-Oct-22 19:00N 42°15' W 070°17'713.7
2017-Oct-22 18:30N 42°21' W 070°19'3 5.3
2017-Oct-22 18:00N 42°22' W 070°23'3 5.1
2017-Oct-22 17:31N 42°20' W 070°25'611.7
2017-Oct-22 17:01N 42°14' W 070°23'1122.5
2017-Oct-22 16:30N 42°04' W 070°15'3 0.1
2017-Oct-21 16:47N 42°06' W 070°17'414.1
2017-Oct-21 16:30N 42°10' W 070°18'5 9.6
2017-Oct-21 16:00N 42°14' W 070°23'2 4.2
2017-Oct-21 15:26N 42°11' W 070°22'511.7
2017-Oct-21 14:59N 42°10' W 070°15'510.2
2017-Oct-21 14:31N 42°05' W 070°14'4 0.1
2017-Oct-19 14:43N 42°07' W 070°18'418.5
2017-Oct-19 14:30N 42°04' W 070°15'  
Track history (hours):
 
Tides and Currents Weather Stations Pressure Air Temp Water Temp Dewpoint Dewpoint Depression Visibility Wind Speed Wind Dir Waves Ship Positions

Dolphin X

Owner: Cape Cod Fishing Fleet Inc, Eastham, MA. More information available from US FCC via Universal Licensing System and Coast Guard Vessel Documentation Center.

Last reported at 2017-Oct-22 19:40 UTC. Time now 2017-Oct-23 02:40 UTC.
Position N 42°01' W 070°11'.

Length 30 m.

MMSI: 367487640.

Date/timePositionNaut miles runAvg speedWind from/ knotsBaromVisibWave heightAir tempDewpointWater temp
2017-Oct-22 19:40N 42°01' W 070°11'321.4
2017-Oct-22 19:31N 42°03' W 070°15'1223.6
2017-Oct-22 19:00N 42°15' W 070°17'713.7
2017-Oct-22 18:30N 42°21' W 070°19'3 5.3
2017-Oct-22 18:00N 42°22' W 070°23'3 5.1
2017-Oct-22 17:31N 42°20' W 070°25'611.7
2017-Oct-22 17:01N 42°14' W 070°23'1122.5
2017-Oct-22 16:30N 42°04' W 070°15'3 0.1
2017-Oct-21 16:47N 42°06' W 070°17'414.1
2017-Oct-21 16:30N 42°10' W 070°18'5 9.6
2017-Oct-21 16:00N 42°14' W 070°23'2 4.2
2017-Oct-21 15:26N 42°11' W 070°22'511.7
2017-Oct-21 14:59N 42°10' W 070°15'510.2
2017-Oct-21 14:31N 42°05' W 070°14'4 0.1
2017-Oct-19 14:43N 42°07' W 070°18'418.5
2017-Oct-19 14:30N 42°04' W 070°15'  

Dump ship's entire track history